Miami, FL

18:30 EDT dnia 25-czerwiec-2017 (GMT -0400)
U of Miami Health System WeatherSTEM | | Change Station

Wysokość 68 ft 25.79 °N, 80.22 °W | Updated 4 minutes ago

pogodnie
pogodnie
83.9 ° F
Odczuwalna 90 ° F
Płn.
5.0
Wiatr zmienny Wiatr od WsPnWs

Dziś
Wysoka -- | Niska -- ° F
--% Prawdop. opadów
Wczoraj
Wysoka -- | Niska -- ° F
Precip. -- cali
Ciśnienie 30.06 cali
Widzialność 10.0 mil
chmury Niewiele 3500 ft
Niewiele 15000 ft
obłoki zanikające 25000 ft
Odczucie gorąca 90 ° F
Punkt rosy 73 ° F
Wilgotność 70%
Opady deszczu 0.00 cali
grubość pokrywy śnieżnej Niedostępne.
6:31 AM 8:15 PM
Powiększający się sierp Księżyca, 5% visible
METAR KMIA 252153Z 10009KT 10SM FEW035 FEW150 SCT250 32/23 A3006 RMK AO2 SLP179 CB DSNT W T03170228
Ciśnienie 30.06 cali
Widzialność 10.0 mil
chmury Niewiele 3500 ft
Niewiele 15000 ft
obłoki zanikające 25000 ft
Odczucie gorąca 90 ° F
Punkt rosy 73 ° F
Wilgotność 70%
Opady deszczu 0.00 cali
grubość pokrywy śnieżnej Niedostępne.
6:31 AM 8:15 PM
Powiększający się sierp Księżyca, 5% visible
METAR KMIA 252153Z 10009KT 10SM FEW035 FEW150 SCT250 32/23 A3006 RMK AO2 SLP179 CB DSNT W T03170228

Get Severe Weather Alerts

Thanks for signing up!

Be on the lookout for a verification email in your inbox.

You'll start receiving the daily forecast at 6 AM.

×

10-Day Weather Forecast

Almanac

Astronomia

Jun. 25, 2017 Wschód Zachów
Aktualny czas
Zmierzch cywilny
Zmierzch żeglarski
świt/zmierzch astronomiczny
Księżyc
całkowite oświetlenie
Długość dnia
Tomorrow will be .
, % of the Moon is Illuminated

Dzisiejsze ekstrema

State Highs State Lows

Community

WunderPhotos

Category 6

Welcome to Category 6. This is the collective home for Weather Underground's featured writeups by Dr. Jeff Masters (right), Bob Henson (left), Chris Burt, and other regular contributors.

Nearby

Jakość powietrza

  Jakość powietrza czynnik AQ Zanieczyszczenie
Not available.

Głębokość pokrywy śnieżnej

Station Depth n.p.m.

Aktywność sejsmiczna

Miejscowość Distance Mag. Time & Date
Minimum magnitude displayed is 2.5.

Temperatury wody na wybrzeżu

Miejsce Temperatura

Stations

Najbliższa stacja pogodowa

Lokalizacja stacji Temp. czynnik chłodzący wiatru Punkt rosy Wilgotność Wiatr Precip. Wysokość Uaktualniono Typ
                   

Watches & Warnings

There are currently no watches in effect.